createdAt,value
2022-10-19T00:01:08.330Z,20.57
2022-10-19T00:03:37.392Z,21.13
2022-10-19T00:06:12.723Z,19.93
2022-10-19T00:08:40.650Z,22.57
2022-10-19T00:11:08.751Z,21.00
2022-10-19T00:13:37.053Z,21.60
2022-10-19T00:16:11.598Z,17.70
2022-10-19T00:18:40.065Z,21.40
2022-10-19T00:21:10.069Z,22.70
2022-10-19T00:23:38.556Z,23.87
2022-10-19T00:26:06.714Z,18.27
2022-10-19T00:28:35.247Z,20.00
2022-10-19T00:31:04.961Z,18.27
2022-10-19T00:33:34.190Z,23.00
2022-10-19T00:36:02.506Z,17.30
2022-10-19T00:38:30.503Z,19.27
2022-10-19T00:40:58.315Z,18.43
2022-10-19T00:43:31.065Z,20.63
2022-10-19T00:45:58.882Z,19.73
2022-10-19T00:48:29.872Z,19.20
2022-10-19T00:51:01.065Z,19.00
2022-10-19T00:53:31.710Z,22.57
2022-10-19T00:56:02.046Z,20.30
2022-10-19T00:58:29.861Z,15.33
2022-10-19T01:00:58.383Z,19.00
2022-10-19T01:03:26.323Z,18.80
2022-10-19T01:05:54.097Z,21.33
2022-10-19T01:08:24.245Z,19.40
2022-10-19T01:11:01.892Z,20.77
2022-10-19T01:13:40.233Z,17.80
2022-10-19T01:16:16.825Z,17.30
2022-10-19T01:18:50.866Z,21.67
2022-10-19T01:21:26.054Z,17.80
2022-10-19T01:24:37.115Z,16.80
2022-10-19T01:27:28.602Z,18.87
2022-10-19T01:30:05.816Z,20.03
2022-10-19T01:32:41.424Z,17.10
2022-10-19T01:35:14.249Z,19.40
2022-10-19T01:37:47.869Z,17.13
2022-10-19T01:40:24.433Z,16.97
2022-10-19T01:43:00.845Z,20.90
2022-10-19T01:45:33.416Z,18.70
2022-10-19T01:48:03.945Z,18.00
2022-10-19T01:50:37.107Z,17.70
2022-10-19T01:53:08.460Z,17.83
2022-10-19T01:55:40.159Z,18.87
2022-10-19T01:58:11.796Z,18.63
2022-10-19T02:00:45.227Z,18.00
2022-10-19T02:03:13.966Z,16.57
2022-10-19T02:05:43.084Z,16.60
2022-10-19T02:08:15.719Z,18.47
2022-10-19T02:10:45.906Z,18.57
2022-10-19T02:13:16.044Z,16.53
2022-10-19T02:15:49.080Z,21.60
2022-10-19T02:18:20.716Z,19.87
2022-10-19T02:20:49.145Z,19.47
2022-10-19T02:23:20.232Z,16.63
2022-10-19T02:25:48.089Z,20.07
2022-10-19T02:28:16.006Z,22.73
2022-10-19T02:30:45.236Z,24.73
2022-10-19T02:33:13.284Z,19.40
2022-10-19T02:35:41.478Z,20.87
2022-10-19T02:38:12.413Z,17.53
2022-10-19T02:40:44.373Z,17.90
2022-10-19T02:43:15.241Z,17.00
2022-10-19T02:45:49.372Z,16.93
2022-10-19T02:48:21.052Z,16.80
2022-10-19T02:50:48.948Z,18.53
2022-10-19T02:53:17.181Z,18.40
2022-10-19T02:55:46.114Z,17.80
2022-10-19T02:58:13.937Z,18.53
2022-10-19T03:00:41.881Z,14.80
2022-10-19T03:03:11.072Z,17.13
2022-10-19T03:05:38.868Z,18.60
2022-10-19T03:08:06.691Z,16.47
2022-10-19T03:10:34.530Z,19.53
2022-10-19T03:13:02.339Z,17.60
2022-10-19T03:15:30.169Z,16.43
2022-10-19T03:17:57.965Z,17.53
2022-10-19T03:20:27.218Z,18.97
2022-10-19T03:22:55.089Z,16.57
2022-10-19T03:25:22.912Z,20.27
2022-10-19T03:27:50.677Z,19.50
2022-10-19T03:30:18.495Z,15.50
2022-10-19T03:32:46.356Z,21.53
2022-10-19T03:35:14.128Z,18.17
2022-10-19T03:37:43.249Z,13.37
2022-10-19T03:40:11.366Z,13.70
2022-10-19T03:42:39.137Z,13.07
2022-10-19T03:45:08.084Z,11.93
2022-10-19T03:47:36.212Z,11.47
2022-10-19T03:50:05.931Z,10.23
2022-10-19T03:52:33.736Z,10.20
2022-10-19T03:55:02.847Z,10.73
2022-10-19T03:57:30.655Z,11.00
2022-10-19T03:59:58.477Z,13.07
2022-10-19T04:02:26.234Z,17.90
2022-10-19T04:04:53.979Z,15.23
2022-10-19T04:07:21.802Z,15.37
2022-10-19T04:09:49.584Z,16.20
2022-10-19T04:12:18.684Z,16.50
2022-10-19T04:14:57.017Z,15.63
2022-10-19T04:17:26.284Z,16.00
2022-10-19T04:19:54.076Z,17.07
2022-10-19T04:22:21.868Z,16.10
2022-10-19T04:24:49.901Z,15.17
2022-10-19T04:27:19.025Z,19.67
2022-10-19T04:29:46.784Z,23.50
2022-10-19T04:32:14.560Z,15.93
2022-10-19T04:34:42.310Z,10.53
2022-10-19T04:37:10.180Z,11.73
2022-10-19T04:39:40.708Z,12.10
2022-10-19T04:42:08.480Z,10.60
2022-10-19T04:44:37.579Z,10.43
2022-10-19T04:47:05.324Z,9.60
2022-10-19T04:49:33.104Z,11.40
2022-10-19T04:52:00.889Z,8.07
2022-10-19T04:54:28.637Z,8.10
2022-10-19T04:56:56.402Z,7.90
2022-10-19T04:59:24.162Z,8.40
2022-10-19T05:01:53.264Z,8.87
2022-10-19T05:04:21.063Z,10.43
2022-10-19T05:06:48.905Z,9.00
2022-10-19T05:09:16.720Z,10.07
2022-10-19T05:11:44.485Z,8.30
2022-10-19T05:14:12.565Z,8.97
2022-10-19T05:16:40.388Z,10.27
2022-10-19T05:19:14.180Z,13.57
2022-10-19T05:21:42.039Z,11.80
2022-10-19T05:24:13.468Z,12.37
2022-10-19T05:26:41.395Z,13.37
2022-10-19T05:29:13.240Z,13.40
2022-10-19T05:31:41.718Z,12.33
2022-10-19T05:34:11.191Z,14.60
2022-10-19T05:36:40.794Z,15.30
2022-10-19T05:39:10.015Z,15.90
2022-10-19T05:41:37.803Z,17.80
2022-10-19T05:44:06.860Z,13.67
2022-10-19T05:46:35.460Z,13.83
2022-10-19T05:49:03.275Z,14.60
2022-10-19T05:51:32.537Z,15.10
2022-10-19T05:54:00.345Z,32.47
2022-10-19T05:56:30.120Z,32.10
2022-10-19T05:58:58.733Z,15.67
2022-10-19T06:01:27.411Z,12.73
2022-10-19T06:03:57.752Z,19.17
2022-10-19T06:06:27.091Z,21.70
2022-10-19T06:08:58.869Z,14.27
2022-10-19T06:11:29.193Z,16.27
2022-10-19T06:13:58.852Z,15.73
2022-10-19T06:16:27.969Z,15.00
2022-10-19T06:18:56.799Z,9.27
2022-10-19T06:21:26.278Z,9.10
2022-10-19T06:23:56.788Z,8.27
2022-10-19T06:26:25.628Z,38.93
2022-10-19T06:28:56.206Z,19.10
2022-10-19T06:31:23.977Z,18.10
2022-10-19T06:33:51.774Z,29.23
2022-10-19T06:36:21.525Z,27.60
2022-10-19T06:38:49.948Z,28.70
2022-10-19T06:41:20.375Z,25.93
2022-10-19T06:43:51.010Z,25.63
2022-10-19T06:46:22.022Z,23.87
2022-10-19T06:48:53.704Z,22.10
2022-10-19T06:51:22.494Z,14.63
2022-10-19T06:53:52.941Z,15.57
2022-10-19T06:56:25.821Z,13.50
2022-10-19T06:58:54.134Z,12.63
2022-10-19T07:01:22.762Z,13.50
2022-10-19T07:03:51.992Z,11.40
2022-10-19T07:06:20.475Z,12.17
2022-10-19T07:08:48.898Z,14.10
2022-10-19T07:11:18.078Z,28.40
2022-10-19T07:13:47.271Z,13.97
2022-10-19T07:16:20.601Z,11.60
2022-10-19T07:18:50.310Z,9.67
2022-10-19T07:21:18.654Z,12.00
2022-10-19T07:23:48.249Z,10.70
2022-10-19T07:26:17.704Z,11.23
2022-10-19T07:28:48.931Z,8.20
2022-10-19T07:31:20.090Z,9.00
2022-10-19T07:33:48.367Z,4.20
2022-10-19T07:36:16.161Z,5.03
2022-10-19T07:38:43.973Z,3.10
2022-10-19T07:41:13.701Z,3.90
2022-10-19T07:43:42.428Z,2.70
2022-10-19T07:46:14.089Z,2.80
2022-10-19T07:48:42.081Z,3.23
2022-10-19T07:51:11.700Z,2.73
2022-10-19T07:53:40.445Z,2.60
2022-10-19T07:56:10.820Z,3.00
2022-10-19T07:58:39.038Z,3.57
2022-10-19T08:01:09.248Z,3.40
2022-10-19T08:06:26.879Z,3.00
2022-10-19T08:08:55.678Z,3.97
2022-10-19T08:11:26.143Z,3.67
2022-10-19T08:13:54.830Z,2.60
2022-10-19T08:16:26.660Z,3.20
2022-10-19T08:18:58.846Z,3.03
2022-10-19T08:21:27.507Z,2.77
2022-10-19T08:23:55.780Z,2.57
2022-10-19T08:26:23.681Z,2.83
2022-10-19T08:28:51.436Z,2.80
2022-10-19T08:31:21.060Z,3.60
2022-10-19T08:33:50.788Z,4.70
2022-10-19T08:36:21.280Z,3.50
2022-10-19T08:38:49.938Z,3.63
2022-10-19T08:41:31.559Z,3.83
2022-10-19T08:44:24.784Z,3.80
2022-10-19T08:47:02.818Z,3.57
2022-10-19T08:49:32.624Z,3.47
2022-10-19T08:52:06.282Z,3.93
2022-10-19T08:54:41.865Z,4.03
2022-10-19T08:57:21.114Z,5.63
2022-10-19T08:59:55.751Z,4.77
2022-10-19T09:02:41.545Z,5.00
2022-10-19T09:05:18.989Z,5.00
2022-10-19T09:07:52.008Z,4.87
2022-10-19T09:10:24.876Z,4.70
2022-10-19T09:12:58.951Z,5.20
2022-10-19T09:15:30.384Z,4.60
2022-10-19T09:17:58.170Z,6.93
2022-10-19T09:20:31.062Z,6.90
2022-10-19T09:23:07.667Z,4.60
2022-10-19T09:25:41.228Z,6.93
2022-10-19T09:28:21.400Z,6.93
2022-10-19T09:30:52.500Z,5.60
2022-10-19T09:33:29.047Z,5.90
2022-10-19T09:35:58.928Z,5.73
2022-10-19T09:38:29.661Z,7.73
2022-10-19T09:40:58.095Z,4.70
2022-10-19T09:43:28.028Z,6.03
2022-10-19T09:46:01.761Z,5.77
2022-10-19T09:48:36.221Z,8.53
2022-10-19T09:51:12.610Z,6.00
2022-10-19T09:53:45.292Z,6.37
2022-10-19T09:56:19.963Z,7.03
2022-10-19T09:58:49.270Z,4.97
2022-10-19T10:01:43.235Z,5.60
2022-10-19T10:04:15.812Z,4.73
2022-10-19T10:06:45.660Z,7.83
2022-10-19T10:09:18.426Z,5.60
2022-10-19T10:11:48.655Z,4.90
2022-10-19T10:14:21.349Z,4.77
2022-10-19T10:16:49.270Z,6.80
2022-10-19T10:19:18.977Z,5.23
2022-10-19T10:21:49.695Z,5.33
2022-10-19T10:24:21.301Z,5.80
2022-10-19T10:26:51.065Z,4.73
2022-10-19T10:29:21.768Z,5.13
2022-10-19T10:31:52.486Z,4.10
2022-10-19T10:34:46.370Z,4.80
2022-10-19T10:37:22.975Z,4.70
2022-10-19T10:39:56.803Z,6.67
2022-10-19T10:42:31.965Z,5.63
2022-10-19T10:45:00.794Z,4.70
2022-10-19T10:47:30.402Z,5.07
2022-10-19T10:50:01.149Z,5.87
2022-10-19T10:52:31.203Z,5.20
2022-10-19T10:55:03.743Z,4.73
2022-10-19T10:57:34.299Z,4.77
2022-10-19T11:00:11.136Z,4.83
2022-10-19T11:02:48.369Z,6.47
2022-10-19T11:05:20.309Z,5.53
2022-10-19T11:07:52.926Z,4.57
2022-10-19T11:10:27.961Z,7.33
2022-10-19T11:13:04.315Z,5.10
2022-10-19T11:15:38.163Z,4.57
2022-10-19T11:18:16.651Z,6.70
2022-10-19T11:20:50.008Z,5.53
2022-10-19T11:23:27.013Z,5.33
2022-10-19T11:26:11.638Z,5.43
2022-10-19T11:28:54.990Z,4.50
2022-10-19T11:31:29.889Z,4.77
2022-10-19T11:34:05.490Z,6.07
2022-10-19T11:36:47.254Z,6.53
2022-10-19T11:39:36.626Z,5.10
2022-10-19T11:42:14.472Z,4.57
2022-10-19T11:44:53.748Z,3.93
2022-10-19T11:47:35.749Z,6.80
2022-10-19T11:50:17.640Z,3.97
2022-10-19T11:52:53.182Z,5.90
2022-10-19T11:55:33.326Z,4.50
2022-10-19T11:58:10.524Z,4.73
2022-10-19T12:00:46.697Z,4.50
2022-10-19T12:03:30.365Z,5.83
2022-10-19T12:06:09.100Z,4.30
2022-10-19T12:08:51.159Z,4.50
2022-10-19T12:11:41.331Z,6.07
2022-10-19T12:14:14.916Z,6.00
2022-10-19T12:16:46.580Z,5.67
2022-10-19T12:19:19.347Z,5.60
2022-10-19T12:21:48.526Z,4.47
2022-10-19T12:24:20.878Z,8.93
2022-10-19T12:26:50.875Z,5.33
2022-10-19T12:29:24.371Z,4.97
2022-10-19T12:31:54.841Z,7.07
2022-10-19T12:34:32.452Z,7.60
2022-10-19T12:37:08.373Z,5.93
2022-10-19T12:39:43.836Z,4.57
2022-10-19T12:42:21.100Z,5.03
2022-10-19T12:45:14.553Z,7.27
2022-10-19T12:48:24.417Z,6.50
2022-10-19T12:51:16.603Z,6.07
2022-10-19T12:53:48.685Z,8.70
2022-10-19T12:56:21.281Z,4.70
2022-10-19T12:58:55.545Z,6.00
2022-10-19T13:01:28.567Z,5.23
2022-10-19T13:04:10.520Z,5.37
2022-10-19T13:06:42.314Z,5.40
2022-10-19T13:09:23.173Z,4.97
2022-10-19T13:12:27.093Z,5.03
2022-10-19T13:14:57.124Z,4.80
2022-10-19T13:17:43.784Z,4.83
2022-10-19T13:20:47.868Z,4.90
2022-10-19T13:23:38.876Z,6.23
2022-10-19T13:26:32.617Z,4.67
2022-10-19T13:29:00.789Z,5.40
2022-10-19T13:31:30.452Z,5.70
2022-10-19T13:34:00.127Z,4.73
2022-10-19T13:36:28.518Z,4.07
2022-10-19T13:39:12.993Z,5.40
2022-10-19T13:41:56.221Z,3.90
2022-10-19T13:44:30.917Z,5.00
2022-10-19T13:47:28.335Z,3.60
2022-10-19T13:50:27.417Z,7.13
2022-10-19T13:53:07.014Z,4.47
2022-10-19T13:56:06.737Z,5.67
2022-10-19T13:59:17.974Z,5.87
2022-10-19T14:01:59.969Z,4.03
2022-10-19T14:04:43.785Z,7.00
2022-10-19T14:07:17.381Z,5.40
2022-10-19T14:10:04.501Z,6.53
2022-10-19T14:12:36.270Z,4.60
2022-10-19T14:15:15.040Z,7.00
2022-10-19T14:17:43.406Z,5.40
2022-10-19T14:20:27.072Z,5.10
2022-10-19T14:22:56.801Z,7.00
2022-10-19T14:25:27.195Z,10.13
2022-10-19T14:28:00.948Z,8.20
2022-10-19T14:30:31.466Z,5.63
2022-10-19T14:33:02.326Z,5.67
2022-10-19T14:35:34.081Z,7.30
2022-10-19T14:38:05.941Z,7.17
2022-10-19T14:40:35.525Z,10.70
2022-10-19T14:43:03.354Z,5.40
2022-10-19T14:45:33.141Z,5.60
2022-10-19T14:48:02.748Z,6.20
2022-10-19T14:50:41.238Z,5.37
2022-10-19T14:53:31.045Z,8.10
2022-10-19T14:56:04.756Z,5.17
2022-10-19T14:58:40.667Z,5.30
2022-10-19T15:01:08.967Z,6.60
2022-10-19T15:03:43.522Z,4.87
2022-10-19T15:06:18.499Z,6.23
2022-10-19T15:08:50.579Z,5.80
2022-10-19T15:11:28.777Z,6.10
2022-10-19T15:14:01.292Z,9.33
2022-10-19T15:16:51.244Z,5.50
2022-10-19T15:19:24.578Z,5.13
2022-10-19T15:22:12.539Z,7.93
2022-10-19T15:24:55.500Z,5.93
2022-10-19T15:27:30.490Z,7.50
2022-10-19T15:30:00.600Z,10.83
2022-10-19T15:32:33.182Z,6.97
2022-10-19T15:35:01.200Z,4.67
2022-10-19T15:37:28.979Z,6.50
2022-10-19T15:39:58.280Z,6.40
2022-10-19T15:42:37.383Z,6.07
2022-10-19T15:45:26.465Z,7.90
2022-10-19T15:48:18.406Z,6.83
2022-10-19T15:50:48.481Z,7.73
2022-10-19T15:53:16.627Z,5.83
2022-10-19T15:55:47.462Z,8.47
2022-10-19T15:58:16.149Z,4.63
2022-10-19T16:00:43.925Z,4.50
2022-10-19T16:03:11.755Z,6.00
2022-10-19T16:05:39.701Z,4.73
2022-10-19T16:08:10.160Z,5.13
2022-10-19T16:10:40.260Z,4.80
2022-10-19T16:13:09.404Z,4.67
2022-10-19T16:15:37.396Z,4.27
2022-10-19T16:18:05.164Z,4.30
2022-10-19T16:20:32.988Z,6.20
2022-10-19T16:23:00.752Z,3.90
2022-10-19T16:25:28.789Z,6.20
2022-10-19T16:27:56.585Z,7.60
2022-10-19T16:30:25.713Z,3.50
2022-10-19T16:32:53.563Z,7.30
2022-10-19T16:35:21.325Z,4.77
2022-10-19T16:37:49.077Z,4.10
2022-10-19T16:40:17.100Z,3.90
2022-10-19T16:42:44.882Z,4.07
2022-10-19T16:45:12.981Z,4.23
2022-10-19T16:47:42.084Z,5.90
2022-10-19T16:50:12.248Z,5.13
2022-10-19T16:52:40.031Z,4.10
2022-10-19T16:55:08.688Z,3.63
2022-10-19T16:57:36.949Z,8.17
2022-10-19T17:00:09.407Z,5.73
2022-10-19T17:02:40.853Z,3.50
2022-10-19T17:05:13.401Z,3.57
2022-10-19T17:07:41.195Z,3.50
2022-10-19T17:10:09.649Z,6.07
2022-10-19T17:12:40.640Z,4.07
2022-10-19T17:15:40.786Z,6.30
2022-10-19T17:17:58.000Z,6.03
2022-10-19T17:20:27.134Z,6.20
2022-10-19T17:22:55.121Z,4.10
2022-10-19T17:25:22.893Z,3.10
2022-10-19T17:27:51.401Z,3.97
2022-10-19T17:30:19.591Z,7.00
2022-10-19T17:32:47.361Z,5.90
2022-10-19T17:35:15.209Z,5.73
2022-10-19T17:37:44.392Z,3.30
2022-10-19T17:40:12.901Z,4.03
2022-10-19T17:42:40.635Z,3.30
2022-10-19T17:45:09.575Z,4.17
2022-10-19T17:47:37.619Z,4.00
2022-10-19T17:50:06.308Z,5.27
2022-10-19T17:52:34.045Z,3.80
2022-10-19T17:55:18.510Z,4.13
2022-10-19T17:57:46.368Z,4.03
2022-10-19T18:00:15.343Z,4.83
2022-10-19T18:02:45.275Z,3.33
2022-10-19T18:05:13.054Z,4.63
2022-10-19T18:07:40.845Z,4.53
2022-10-19T18:10:10.584Z,3.53
2022-10-19T18:12:38.361Z,4.47
2022-10-19T18:15:06.917Z,4.93
2022-10-19T18:17:34.917Z,4.17
2022-10-19T18:20:02.949Z,4.43
2022-10-19T18:22:30.974Z,6.60
2022-10-19T18:24:58.828Z,4.50
2022-10-19T18:27:27.993Z,4.23
2022-10-19T18:29:55.881Z,4.00
2022-10-19T18:32:23.644Z,15.73
2022-10-19T18:34:51.441Z,13.23
2022-10-19T18:37:19.197Z,6.27
2022-10-19T18:39:47.160Z,4.47
2022-10-19T18:42:16.336Z,6.70
2022-10-19T18:44:47.100Z,3.70
2022-10-19T18:47:14.919Z,3.80
2022-10-19T18:49:42.678Z,4.80
2022-10-19T18:52:10.473Z,3.90
2022-10-19T18:54:38.413Z,3.40
2022-10-19T18:57:06.197Z,4.80
2022-10-19T18:59:34.176Z,3.83
2022-10-19T19:02:03.324Z,3.50
2022-10-19T19:04:31.301Z,4.27
2022-10-19T19:06:59.077Z,10.30
2022-10-19T19:09:26.860Z,5.53
2022-10-19T19:11:57.885Z,3.97
2022-10-19T19:14:26.443Z,3.47
2022-10-19T19:16:54.314Z,3.73
2022-10-19T19:19:24.391Z,2.87
2022-10-19T19:21:52.629Z,4.37
2022-10-19T19:24:22.105Z,2.80
2022-10-19T19:26:52.035Z,3.23
2022-10-19T19:29:21.172Z,4.10
2022-10-19T19:31:49.221Z,3.27
2022-10-19T19:34:17.383Z,3.40
2022-10-19T19:36:48.514Z,2.93
2022-10-19T19:39:19.314Z,3.63
2022-10-19T19:41:47.617Z,4.20
2022-10-19T19:44:15.398Z,4.17
2022-10-19T19:46:43.327Z,3.57
2022-10-19T19:49:11.468Z,3.33
2022-10-19T19:51:39.249Z,3.63
2022-10-19T19:54:08.393Z,6.30
2022-10-19T19:56:37.254Z,8.70
2022-10-19T19:59:05.086Z,6.37
2022-10-19T20:01:33.473Z,11.43
2022-10-19T20:06:36.581Z,9.77
2022-10-19T20:09:05.624Z,6.87
2022-10-19T20:11:37.278Z,5.20
2022-10-19T20:14:07.646Z,6.87
2022-10-19T20:16:36.551Z,6.00
2022-10-19T20:19:07.425Z,6.33
2022-10-19T20:21:35.520Z,9.43
2022-10-19T20:24:04.612Z,5.50
2022-10-19T20:26:34.349Z,4.80
2022-10-19T20:29:03.823Z,5.63
2022-10-19T20:31:33.313Z,5.97
2022-10-19T20:34:01.309Z,3.80
2022-10-19T20:36:29.069Z,4.30
2022-10-19T20:38:58.040Z,6.27
2022-10-19T20:41:27.838Z,3.70
2022-10-19T20:43:57.350Z,5.40
2022-10-19T20:46:26.895Z,5.93
2022-10-19T20:48:56.460Z,3.90
2022-10-19T20:51:30.623Z,6.90
2022-10-19T20:54:01.394Z,7.03
2022-10-19T20:56:31.206Z,5.50
2022-10-19T21:01:33.682Z,5.63
2022-10-19T21:04:04.648Z,6.47
2022-10-19T21:06:34.873Z,5.40
2022-10-19T21:09:02.696Z,4.90
2022-10-19T21:11:32.346Z,5.63
2022-10-19T21:14:03.130Z,6.13
2022-10-19T21:16:33.603Z,6.27
2022-10-19T21:19:02.332Z,8.23
2022-10-19T21:21:31.981Z,6.00
2022-10-19T21:24:02.389Z,5.70
2022-10-19T21:26:30.257Z,4.87
2022-10-19T21:28:58.129Z,4.97
2022-10-19T21:31:27.951Z,5.67
2022-10-19T21:33:55.859Z,5.27
2022-10-19T21:36:25.095Z,4.93
2022-10-19T21:38:53.102Z,5.23
2022-10-19T21:41:25.425Z,5.00
2022-10-19T21:43:54.405Z,3.93
2022-10-19T21:46:23.637Z,3.97
2022-10-19T21:48:54.008Z,5.43
2022-10-19T21:51:29.585Z,4.43
2022-10-19T21:53:57.589Z,6.37
2022-10-19T21:56:25.405Z,5.30
2022-10-19T21:58:54.310Z,5.60
2022-10-19T22:01:23.983Z,6.00
2022-10-19T22:03:57.769Z,6.10
2022-10-19T22:06:25.661Z,5.77
2022-10-19T22:08:53.913Z,6.50
2022-10-19T22:11:22.592Z,4.53
2022-10-19T22:13:50.738Z,4.90
2022-10-19T22:16:20.721Z,4.03
2022-10-19T22:18:49.460Z,7.30
2022-10-19T22:21:21.713Z,4.73
2022-10-19T22:23:52.852Z,5.80
2022-10-19T22:26:23.124Z,5.40
2022-10-19T22:28:51.325Z,4.97
2022-10-19T22:31:19.473Z,5.00
2022-10-19T22:33:47.269Z,7.00
2022-10-19T22:36:16.056Z,6.60
2022-10-19T22:38:45.453Z,6.97
2022-10-19T22:41:13.394Z,5.10
2022-10-19T22:43:41.256Z,6.60
2022-10-19T22:46:09.280Z,5.80
2022-10-19T22:48:37.350Z,5.40
2022-10-19T22:51:05.138Z,6.27
2022-10-19T22:53:32.958Z,6.87
2022-10-19T22:56:02.309Z,4.73
2022-10-19T22:58:30.192Z,6.20
2022-10-19T23:01:02.528Z,5.40
2022-10-19T23:03:30.431Z,6.00
2022-10-19T23:05:58.436Z,7.40
2022-10-19T23:08:26.672Z,9.30
2022-10-19T23:10:54.573Z,8.67
2022-10-19T23:13:24.140Z,6.73
2022-10-19T23:15:51.957Z,5.43
2022-10-19T23:18:19.997Z,5.60
2022-10-19T23:20:55.047Z,5.70
2022-10-19T23:23:23.458Z,5.77
2022-10-19T23:25:59.049Z,5.17
2022-10-19T23:28:28.543Z,6.30
2022-10-19T23:30:57.174Z,9.43
2022-10-19T23:33:25.552Z,5.93
2022-10-19T23:35:53.885Z,7.27
2022-10-19T23:38:21.708Z,9.80
2022-10-19T23:40:49.930Z,6.07
2022-10-19T23:43:17.769Z,7.00
2022-10-19T23:45:46.933Z,5.60
2022-10-19T23:48:14.693Z,5.30
2022-10-19T23:50:42.596Z,5.40
2022-10-19T23:53:10.401Z,5.23
2022-10-19T23:55:38.477Z,5.60
2022-10-19T23:58:06.207Z,6.80
